sensor_id;sensor_type;location;lat;lon;timestamp;pressure;altitude;pressure_sealevel;temperature;humidity
77517;BME280;68414;53.946;27.634;2023-07-24T00:00:43;98304.718750;;;19.510000;59.717773
77517;BME280;68414;53.946;27.634;2023-07-24T00:01:42;98298.812500;;;19.450001;59.921875
77517;BME280;68414;53.946;27.634;2023-07-24T00:02:42;98291.781250;;;19.370001;60.552734
77517;BME280;68414;53.946;27.634;2023-07-24T00:03:42;98288.195312;;;19.370001;61.317383
77517;BME280;68414;53.946;27.634;2023-07-24T00:04:42;98294.140625;;;19.389999;61.142578
77517;BME280;68414;53.946;27.634;2023-07-24T00:05:43;98288.984375;;;19.370001;61.338867
77517;BME280;68414;53.946;27.634;2023-07-24T00:06:42;98285.359375;;;19.400000;61.266602
77517;BME280;68414;53.946;27.634;2023-07-24T00:07:43;98285.398438;;;19.370001;61.771484
77517;BME280;68414;53.946;27.634;2023-07-24T00:08:42;98292.671875;;;19.309999;62.572266
77517;BME280;68414;53.946;27.634;2023-07-24T00:09:43;98286.835938;;;19.219999;62.736328
77517;BME280;68414;53.946;27.634;2023-07-24T00:10:42;98290.312500;;;19.290001;62.813477
77517;BME280;68414;53.946;27.634;2023-07-24T00:11:42;98286.234375;;;19.340000;63.617188
77517;BME280;68414;53.946;27.634;2023-07-24T00:12:42;98288.281250;;;19.299999;62.602539
77517;BME280;68414;53.946;27.634;2023-07-24T00:13:42;98287.203125;;;19.240000;62.949219
77517;BME280;68414;53.946;27.634;2023-07-24T00:14:42;98281.492188;;;19.309999;63.137695
77517;BME280;68414;53.946;27.634;2023-07-24T00:15:43;98279.140625;;;19.290001;63.134766
77517;BME280;68414;53.946;27.634;2023-07-24T00:16:42;98278.609375;;;19.379999;62.935547
77517;BME280;68414;53.946;27.634;2023-07-24T00:17:42;98276.453125;;;19.450001;62.548828
77517;BME280;68414;53.946;27.634;2023-07-24T00:18:42;98268.796875;;;19.490000;61.523438
77517;BME280;68414;53.946;27.634;2023-07-24T00:19:42;98276.335938;;;19.520000;61.970703
77517;BME280;68414;53.946;27.634;2023-07-24T00:20:42;98273.820312;;;19.580000;61.888672
77517;BME280;68414;53.946;27.634;2023-07-24T00:21:42;98275.851562;;;19.570000;61.988281
77517;BME280;68414;53.946;27.634;2023-07-24T00:22:42;98279.765625;;;19.400000;61.821289
77517;BME280;68414;53.946;27.634;2023-07-24T00:23:44;98277.976562;;;19.270000;63.297852
77517;BME280;68414;53.946;27.634;2023-07-24T00:24:42;98273.593750;;;19.260000;62.541992
77517;BME280;68414;53.946;27.634;2023-07-24T00:25:42;98277.734375;;;19.180000;61.943359
77517;BME280;68414;53.946;27.634;2023-07-24T00:26:42;98268.992188;;;19.160000;62.616211
77517;BME280;68414;53.946;27.634;2023-07-24T00:27:42;98272.796875;;;19.250000;62.518555
77517;BME280;68414;53.946;27.634;2023-07-24T00:28:42;98270.546875;;;19.170000;61.764648
77517;BME280;68414;53.946;27.634;2023-07-24T00:29:42;98272.984375;;;19.150000;61.873047
77517;BME280;68414;53.946;27.634;2023-07-24T00:30:42;98271.351562;;;19.170000;61.766602
77517;BME280;68414;53.946;27.634;2023-07-24T00:31:42;98277.656250;;;19.209999;61.539062
77517;BME280;68414;53.946;27.634;2023-07-24T00:32:42;98277.656250;;;19.209999;61.195312
77517;BME280;68414;53.946;27.634;2023-07-24T00:33:42;98273.781250;;;19.150000;62.273438
77517;BME280;68414;53.946;27.634;2023-07-24T00:34:42;98283.750000;;;19.160000;62.750977
77517;BME280;68414;53.946;27.634;2023-07-24T00:35:42;98272.265625;;;19.110001;63.860352
77517;BME280;68414;53.946;27.634;2023-07-24T00:36:42;98271.101562;;;19.080000;63.303711
77517;BME280;68414;53.946;27.634;2023-07-24T00:37:42;98273.304688;;;19.200001;62.589844
77517;BME280;68414;53.946;27.634;2023-07-24T00:38:42;98268.554688;;;19.170000;63.094727
77517;BME280;68414;53.946;27.634;2023-07-24T00:39:42;98270.148438;;;19.180000;61.833984
77517;BME280;68414;53.946;27.634;2023-07-24T00:40:42;98267.398438;;;19.150000;61.762695
77517;BME280;68414;53.946;27.634;2023-07-24T00:41:42;98268.265625;;;19.120001;62.234375
77517;BME280;68414;53.946;27.634;2023-07-24T00:42:45;98268.671875;;;19.100000;62.532227
77517;BME280;68414;53.946;27.634;2023-07-24T00:43:42;98263.843750;;;19.139999;62.150391
77517;BME280;68414;53.946;27.634;2023-07-24T00:44:42;98264.921875;;;19.200001;61.903320
77517;BME280;68414;53.946;27.634;2023-07-24T00:45:42;98255.750000;;;19.200001;61.538086
77517;BME280;68414;53.946;27.634;2023-07-24T00:46:42;98257.453125;;;19.139999;61.716797
77517;BME280;68414;53.946;27.634;2023-07-24T00:47:42;98247.296875;;;19.230000;61.608398
77517;BME280;68414;53.946;27.634;2023-07-24T00:48:42;98252.039062;;;19.260000;62.333008
77517;BME280;68414;53.946;27.634;2023-07-24T00:49:42;98249.250000;;;19.260000;62.787109
77517;BME280;68414;53.946;27.634;2023-07-24T00:50:42;98249.367188;;;19.190001;62.898438
77517;BME280;68414;53.946;27.634;2023-07-24T00:51:42;98253.031250;;;19.160000;63.869141
77517;BME280;68414;53.946;27.634;2023-07-24T00:52:42;98253.937500;;;19.100000;63.284180
77517;BME280;68414;53.946;27.634;2023-07-24T00:53:42;98251.000000;;;19.170000;61.776367
77517;BME280;68414;53.946;27.634;2023-07-24T00:54:42;98252.515625;;;19.209999;61.495117
77517;BME280;68414;53.946;27.634;2023-07-24T00:55:42;98249.734375;;;19.209999;61.882812
77517;BME280;68414;53.946;27.634;2023-07-24T00:56:43;98245.812500;;;19.190001;61.747070
77517;BME280;68414;53.946;27.634;2023-07-24T00:57:43;98244.500000;;;19.230000;61.984375
77517;BME280;68414;53.946;27.634;2023-07-24T00:58:42;98236.437500;;;19.290001;61.739258
77517;BME280;68414;53.946;27.634;2023-07-24T00:59:42;98234.437500;;;19.290001;61.262695
77517;BME280;68414;53.946;27.634;2023-07-24T01:00:42;98230.171875;;;19.209999;61.361328
77517;BME280;68414;53.946;27.634;2023-07-24T01:01:42;98231.281250;;;19.270000;61.071289
77517;BME280;68414;53.946;27.634;2023-07-24T01:02:42;98216.085938;;;19.280001;61.571289
77517;BME280;68414;53.946;27.634;2023-07-24T01:03:42;98223.390625;;;19.219999;61.805664
77517;BME280;68414;53.946;27.634;2023-07-24T01:04:42;98214.093750;;;19.290001;61.793945
77517;BME280;68414;53.946;27.634;2023-07-24T01:05:42;98205.398438;;;19.230000;61.795898
77517;BME280;68414;53.946;27.634;2023-07-24T01:06:42;98205.828125;;;19.219999;62.005859
77517;BME280;68414;53.946;27.634;2023-07-24T01:07:42;98201.406250;;;19.240000;61.367188
77517;BME280;68414;53.946;27.634;2023-07-24T01:08:42;98204.984375;;;19.250000;60.403320
77517;BME280;68414;53.946;27.634;2023-07-24T01:09:42;98204.632812;;;19.230000;60.422852
77517;BME280;68414;53.946;27.634;2023-07-24T01:10:42;98212.093750;;;19.290001;59.944336
77517;BME280;68414;53.946;27.634;2023-07-24T01:12:04;98209.656250;;;19.309999;59.890625
77517;BME280;68414;53.946;27.634;2023-07-24T01:13:44;98209.609375;;;19.350000;59.552734
77517;BME280;68414;53.946;27.634;2023-07-24T01:15:45;98207.835938;;;19.440001;59.409180
77517;BME280;68414;53.946;27.634;2023-07-24T01:16:42;98204.882812;;;19.510000;59.242188
77517;BME280;68414;53.946;27.634;2023-07-24T01:17:45;98194.937500;;;19.500000;59.384766
77517;BME280;68414;53.946;27.634;2023-07-24T01:18:42;98204.031250;;;19.540001;59.445312
77517;BME280;68414;53.946;27.634;2023-07-24T01:19:43;98200.085938;;;19.520000;59.086914
77517;BME280;68414;53.946;27.634;2023-07-24T01:20:43;98203.671875;;;19.520000;59.443359
77517;BME280;68414;53.946;27.634;2023-07-24T01:22:47;98206.554688;;;19.490000;59.049805
77517;BME280;68414;53.946;27.634;2023-07-24T01:26:42;98222.109375;;;19.270000;59.608398
77517;BME280;68414;53.946;27.634;2023-07-24T01:28:42;98232.328125;;;19.139999;60.298828
77517;BME280;68414;53.946;27.634;2023-07-24T01:29:42;98235.234375;;;19.070000;60.676758
77517;BME280;68414;53.946;27.634;2023-07-24T01:30:42;98229.289062;;;19.049999;61.327148
77517;BME280;68414;53.946;27.634;2023-07-24T01:31:42;98235.156250;;;19.100000;60.650391
77517;BME280;68414;53.946;27.634;2023-07-24T01:32:42;98236.031250;;;19.070000;60.677734
77517;BME280;68414;53.946;27.634;2023-07-24T01:33:43;98236.031250;;;19.070000;60.689453
77517;BME280;68414;53.946;27.634;2023-07-24T01:34:42;98227.656250;;;19.070000;60.965820
77517;BME280;68414;53.946;27.634;2023-07-24T01:35:42;98228.484375;;;19.040001;61.239258
77517;BME280;68414;53.946;27.634;2023-07-24T01:36:42;98224.421875;;;19.090000;61.266602
77517;BME280;68414;53.946;27.634;2023-07-24T01:37:43;98228.734375;;;19.129999;61.792969
77517;BME280;68414;53.946;27.634;2023-07-24T01:38:42;98224.421875;;;19.090000;62.407227
77517;BME280;68414;53.946;27.634;2023-07-24T01:39:42;98224.500000;;;19.049999;62.967773
77517;BME280;68414;53.946;27.634;2023-07-24T01:40:42;98226.968750;;;19.000000;61.487305
77517;BME280;68414;53.946;27.634;2023-07-24T01:41:42;98226.609375;;;18.980000;61.307617
77517;BME280;68414;53.946;27.634;2023-07-24T01:42:42;98229.585938;;;18.870001;61.780273
77517;BME280;68414;53.946;27.634;2023-07-24T01:43:42;98229.953125;;;18.889999;61.683594
77517;BME280;68414;53.946;27.634;2023-07-24T01:44:42;98235.968750;;;18.870001;61.503906
77517;BME280;68414;53.946;27.634;2023-07-24T01:45:42;98231.179688;;;18.879999;61.769531
77517;BME280;68414;53.946;27.634;2023-07-24T01:46:42;98229.906250;;;18.930000;62.163086
77517;BME280;68414;53.946;27.634;2023-07-24T01:47:42;98226.968750;;;19.000000;61.841797
77517;BME280;68414;53.946;27.634;2023-07-24T01:48:42;98223.226562;;;19.100000;61.601562
77517;BME280;68414;53.946;27.634;2023-07-24T01:49:42;98227.453125;;;19.180000;61.323242
77517;BME280;68414;53.946;27.634;2023-07-24T01:50:42;98231.281250;;;19.270000;61.304688
77517;BME280;68414;53.946;27.634;2023-07-24T01:51:42;98224.031250;;;19.299999;60.454102
77517;BME280;68414;53.946;27.634;2023-07-24T01:52:42;98236.000000;;;19.299999;60.743164
77517;BME280;68414;53.946;27.634;2023-07-24T01:53:42;98237.953125;;;19.330000;61.190430
77517;BME280;68414;53.946;27.634;2023-07-24T01:54:42;98242.289062;;;19.379999;61.429688
77517;BME280;68414;53.946;27.634;2023-07-24T01:55:42;98238.218750;;;19.420000;61.646484
77517;BME280;68414;53.946;27.634;2023-07-24T01:56:42;98240.492188;;;19.469999;61.111328
77517;BME280;68414;53.946;27.634;2023-07-24T01:57:42;98234.859375;;;19.510000;61.502930
77517;BME280;68414;53.946;27.634;2023-07-24T01:58:42;98234.773438;;;19.540001;61.940430
77517;BME280;68414;53.946;27.634;2023-07-24T01:59:42;98241.367188;;;19.440001;61.782227
77517;BME280;68414;53.946;27.634;2023-07-24T02:00:42;98232.906250;;;19.480000;61.853516
77517;BME280;68414;53.946;27.634;2023-07-24T02:01:42;98237.210938;;;19.520000;61.793945
77517;BME280;68414;53.946;27.634;2023-07-24T02:02:42;98237.929688;;;19.559999;61.654297
77517;BME280;68414;53.946;27.634;2023-07-24T02:03:42;98240.007812;;;19.520000;62.513672
77517;BME280;68414;53.946;27.634;2023-07-24T02:04:42;98235.781250;;;19.440001;62.734375
77517;BME280;68414;53.946;27.634;2023-07-24T02:05:42;98232.625000;;;19.420000;62.377930
77517;BME280;68414;53.946;27.634;2023-07-24T02:06:42;98242.289062;;;19.379999;62.791992
77517;BME280;68414;53.946;27.634;2023-07-24T02:07:42;98248.718750;;;19.350000;62.699219
77517;BME280;68414;53.946;27.634;2023-07-24T02:08:42;98248.812500;;;19.280001;62.976562
77517;BME280;68414;53.946;27.634;2023-07-24T02:09:42;98248.093750;;;19.240000;63.403320
77517;BME280;68414;53.946;27.634;2023-07-24T02:10:42;98256.546875;;;19.200001;63.342773
77517;BME280;68414;53.946;27.634;2023-07-24T02:11:42;98260.898438;;;19.209999;62.912109
77517;BME280;68414;53.946;27.634;2023-07-24T02:12:42;98259.625000;;;19.260000;62.796875
77517;BME280;68414;53.946;27.634;2023-07-24T02:14:42;98263.578125;;;19.280001;62.458008
77517;BME280;68414;53.946;27.634;2023-07-24T02:15:42;98260.296875;;;19.330000;62.630859
77517;BME280;68414;53.946;27.634;2023-07-24T02:16:42;98261.578125;;;19.290001;62.802734
77517;BME280;68414;53.946;27.634;2023-07-24T02:17:42;98266.125000;;;19.190001;62.632812
77517;BME280;68414;53.946;27.634;2023-07-24T02:18:42;98265.109375;;;19.100000;62.486328
77517;BME280;68414;53.946;27.634;2023-07-24T02:19:42;98267.585938;;;19.040001;62.755859
77517;BME280;68414;53.946;27.634;2023-07-24T02:20:48;98266.859375;;;19.000000;63.148438
77517;BME280;68414;53.946;27.634;2023-07-24T02:21:42;98272.515625;;;18.969999;62.457031
77517;BME280;68414;53.946;27.634;2023-07-24T02:22:42;98271.250000;;;19.010000;62.054688
77517;BME280;68414;53.946;27.634;2023-07-24T02:23:42;98273.609375;;;19.030001;62.099609
77517;BME280;68414;53.946;27.634;2023-07-24T02:24:42;98268.859375;;;19.000000;62.107422
77517;BME280;68414;53.946;27.634;2023-07-24T02:25:42;98262.140625;;;18.969999;61.915039
77517;BME280;68414;53.946;27.634;2023-07-24T02:26:42;98262.359375;;;19.059999;62.039062
77517;BME280;68414;53.946;27.634;2023-07-24T02:27:42;98267.000000;;;19.160000;61.720703
77517;BME280;68414;53.946;27.634;2023-07-24T02:28:42;98256.984375;;;19.190001;60.959961
77517;BME280;68414;53.946;27.634;2023-07-24T02:29:42;98267.546875;;;19.080000;61.753906
77517;BME280;68414;53.946;27.634;2023-07-24T02:30:42;98268.992188;;;19.160000;61.166016
77517;BME280;68414;53.946;27.634;2023-07-24T02:31:42;98269.789062;;;19.160000;60.978516
77517;BME280;68414;53.946;27.634;2023-07-24T02:32:42;98264.054688;;;19.230000;60.256836
77517;BME280;68414;53.946;27.634;2023-07-24T02:33:42;98264.812500;;;19.270000;60.007812
77517;BME280;68414;53.946;27.634;2023-07-24T02:34:42;98267.210938;;;19.250000;60.668945
77517;BME280;68414;53.946;27.634;2023-07-24T02:35:42;98269.640625;;;19.230000;60.555664
77517;BME280;68414;53.946;27.634;2023-07-24T02:36:42;98267.359375;;;19.180000;60.892578
77517;BME280;68414;53.946;27.634;2023-07-24T02:37:42;98262.968750;;;19.170000;60.769531
77517;BME280;68414;53.946;27.634;2023-07-24T02:38:42;98266.078125;;;19.230000;60.999023
77517;BME280;68414;53.946;27.634;2023-07-24T02:39:42;98267.164062;;;19.290001;60.586914
77517;BME280;68414;53.946;27.634;2023-07-24T02:40:43;98260.898438;;;19.209999;61.151367
77517;BME280;68414;53.946;27.634;2023-07-24T02:41:42;98256.546875;;;19.200001;61.072266
77517;BME280;68414;53.946;27.634;2023-07-24T02:42:42;98258.062500;;;19.250000;62.142578
77517;BME280;68414;53.946;27.634;2023-07-24T02:43:42;98250.843750;;;19.270000;61.891602
77517;BME280;68414;53.946;27.634;2023-07-24T02:44:42;98242.218750;;;19.180000;62.343750
77517;BME280;68414;53.946;27.634;2023-07-24T02:45:42;98246.570312;;;19.190001;62.156250
77517;BME280;68414;53.946;27.634;2023-07-24T02:46:42;98241.421875;;;19.180000;61.866211
77517;BME280;68414;53.946;27.634;2023-07-24T02:47:42;98241.062500;;;19.160000;61.929688
77517;BME280;68414;53.946;27.634;2023-07-24T02:48:42;98243.531250;;;19.100000;62.156250
77517;BME280;68414;53.946;27.634;2023-07-24T02:49:42;98236.507812;;;19.020000;62.985352
77517;BME280;68414;53.946;27.634;2023-07-24T02:50:42;98245.859375;;;18.920000;63.446289
77517;BME280;68414;53.946;27.634;2023-07-24T02:51:42;98238.031250;;;18.830000;64.098633
77517;BME280;68414;53.946;27.634;2023-07-24T02:52:42;98240.859375;;;18.799999;64.236328
77517;BME280;68414;53.946;27.634;2023-07-24T02:53:42;98239.195312;;;18.860001;64.399414
77517;BME280;68414;53.946;27.634;2023-07-24T02:54:42;98246.226562;;;18.940001;64.433594
77517;BME280;68414;53.946;27.634;2023-07-24T02:55:42;98251.125000;;;18.860001;64.998047
77517;BME280;68414;53.946;27.634;2023-07-24T02:56:42;98253.187500;;;18.820000;65.247070
77517;BME280;68414;53.946;27.634;2023-07-24T02:57:42;98248.875000;;;18.780001;65.947266
77517;BME280;68414;53.946;27.634;2023-07-24T02:58:42;98249.414062;;;18.690001;66.222656
77517;BME280;68414;53.946;27.634;2023-07-24T02:59:42;98249.742188;;;18.750000;65.887695
77517;BME280;68414;53.946;27.634;2023-07-24T03:00:42;98243.359375;;;18.740000;66.173828
77517;BME280;68414;53.946;27.634;2023-07-24T03:01:42;98240.570312;;;18.740000;66.052734
77517;BME280;68414;53.946;27.634;2023-07-24T03:02:42;98234.734375;;;18.650000;66.690430
77517;BME280;68414;53.946;27.634;2023-07-24T03:03:42;98227.218750;;;18.620001;67.359375
77517;BME280;68414;53.946;27.634;2023-07-24T03:04:42;98228.890625;;;18.559999;67.649414
77517;BME280;68414;53.946;27.634;2023-07-24T03:05:42;98218.156250;;;18.549999;66.818359
77517;BME280;68414;53.946;27.634;2023-07-24T03:06:42;98218.593750;;;18.530001;67.246094
77517;BME280;68414;53.946;27.634;2023-07-24T03:07:42;98228.484375;;;18.580000;67.462891
77517;BME280;68414;53.946;27.634;2023-07-24T03:08:42;98218.890625;;;18.590000;67.366211
77517;BME280;68414;53.946;27.634;2023-07-24T03:09:42;98212.468750;;;18.620001;67.237305
77517;BME280;68414;53.946;27.634;2023-07-24T03:10:42;98217.187500;;;18.650000;67.695312
77517;BME280;68414;53.946;27.634;2023-07-24T03:11:42;98211.609375;;;18.650000;68.059570
77517;BME280;68414;53.946;27.634;2023-07-24T03:12:42;98211.781250;;;18.540001;68.418945
77517;BME280;68414;53.946;27.634;2023-07-24T03:13:42;98215.468750;;;18.480000;68.142578
77517;BME280;68414;53.946;27.634;2023-07-24T03:14:42;98222.351562;;;18.400000;68.925781
77517;BME280;68414;53.946;27.634;2023-07-24T03:15:42;98223.906250;;;18.440001;68.823242
77517;BME280;68414;53.946;27.634;2023-07-24T03:16:42;98221.421875;;;18.500000;67.628906
77517;BME280;68414;53.946;27.634;2023-07-24T03:17:42;98224.429688;;;18.620001;68.673828
77517;BME280;68414;53.946;27.634;2023-07-24T03:18:42;98213.929688;;;18.700001;69.004883
77517;BME280;68414;53.946;27.634;2023-07-24T03:19:42;98219.507812;;;18.700001;69.568359
77517;BME280;68414;53.946;27.634;2023-07-24T03:20:42;98224.000000;;;18.639999;68.963867
77517;BME280;68414;53.946;27.634;2023-07-24T03:21:42;98225.734375;;;18.540001;69.203125
77517;BME280;68414;53.946;27.634;2023-07-24T03:22:42;98227.000000;;;18.500000;69.019531
77517;BME280;68414;53.946;27.634;2023-07-24T03:23:42;98221.117188;;;18.440001;70.014648
77517;BME280;68414;53.946;27.634;2023-07-24T03:24:42;98227.859375;;;18.430000;70.209961
77517;BME280;68414;53.946;27.634;2023-07-24T03:25:42;98227.359375;;;18.520000;68.989258
77517;BME280;68414;53.946;27.634;2023-07-24T03:26:42;98229.218750;;;18.620001;69.014648
77517;BME280;68414;53.946;27.634;2023-07-24T03:27:42;98229.109375;;;18.690001;68.772461
77517;BME280;68414;53.946;27.634;2023-07-24T03:28:42;98224.984375;;;18.770000;68.597656
77517;BME280;68414;53.946;27.634;2023-07-24T03:29:42;98223.710938;;;18.809999;68.460938
77517;BME280;68414;53.946;27.634;2023-07-24T03:30:42;98234.015625;;;18.840000;68.266602
77517;BME280;68414;53.946;27.634;2023-07-24T03:31:42;98224.000000;;;18.870001;68.734375
77517;BME280;68414;53.946;27.634;2023-07-24T03:32:45;98216.898438;;;18.820000;68.694336
77517;BME280;68414;53.946;27.634;2023-07-24T03:33:42;98216.250000;;;18.750000;68.705078
77517;BME280;68414;53.946;27.634;2023-07-24T03:34:42;98212.226562;;;18.760000;68.771484
77517;BME280;68414;53.946;27.634;2023-07-24T03:35:42;98206.390625;;;18.670000;69.023438
77517;BME280;68414;53.946;27.634;2023-07-24T03:36:42;98202.515625;;;18.610001;69.202148
77517;BME280;68414;53.946;27.634;2023-07-24T03:37:42;98211.421875;;;18.520000;69.507812
77517;BME280;68414;53.946;27.634;2023-07-24T03:38:42;98206.343750;;;18.440001;70.277344
77517;BME280;68414;53.946;27.634;2023-07-24T03:39:42;98212.390625;;;18.389999;70.985352
77517;BME280;68414;53.946;27.634;2023-07-24T03:40:42;98205.609375;;;18.400000;71.165039
77517;BME280;68414;53.946;27.634;2023-07-24T03:41:42;98201.718750;;;18.340000;71.627930
77517;BME280;68414;53.946;27.634;2023-07-24T03:42:42;98204.882812;;;18.360001;71.743164
77517;BME280;68414;53.946;27.634;2023-07-24T03:43:42;98201.953125;;;18.459999;71.329102
77517;BME280;68414;53.946;27.634;2023-07-24T03:44:42;98206.164062;;;18.580000;71.049805
77517;BME280;68414;53.946;27.634;2023-07-24T03:45:42;98198.156250;;;18.600000;70.180664
77517;BME280;68414;53.946;27.634;2023-07-24T03:46:42;98207.726562;;;18.590000;70.269531
77517;BME280;68414;53.946;27.634;2023-07-24T03:47:42;98198.992188;;;18.570000;70.176758
77517;BME280;68414;53.946;27.634;2023-07-24T03:48:42;98201.781250;;;18.570000;70.750000
77517;BME280;68414;53.946;27.634;2023-07-24T03:49:42;98202.937500;;;18.590000;71.008789
77517;BME280;68414;53.946;27.634;2023-07-24T03:50:42;98199.789062;;;18.570000;70.485352
77517;BME280;68414;53.946;27.634;2023-07-24T03:51:42;98197.359375;;;18.590000;70.842773
77517;BME280;68414;53.946;27.634;2023-07-24T03:52:42;98204.031250;;;18.650000;70.940430
77517;BME280;68414;53.946;27.634;2023-07-24T03:53:42;98194.750000;;;18.719999;70.630859
77517;BME280;68414;53.946;27.634;2023-07-24T03:54:42;98188.265625;;;18.780001;69.890625
77517;BME280;68414;53.946;27.634;2023-07-24T03:55:42;98185.796875;;;18.840000;69.468750
77517;BME280;68414;53.946;27.634;2023-07-24T03:56:42;98189.710938;;;18.860001;68.832031
77517;BME280;68414;53.946;27.634;2023-07-24T03:57:42;98176.109375;;;18.879999;68.206055
77517;BME280;68414;53.946;27.634;2023-07-24T03:58:42;98188.187500;;;18.820000;68.802734
77517;BME280;68414;53.946;27.634;2023-07-24T03:59:42;98184.750000;;;18.740000;69.366211
77517;BME280;68414;53.946;27.634;2023-07-24T04:00:42;98187.468750;;;18.780001;69.526367
77517;BME280;68414;53.946;27.634;2023-07-24T04:01:42;98187.781250;;;18.830000;69.291992
77517;BME280;68414;53.946;27.634;2023-07-24T04:02:42;98194.093750;;;18.870001;69.176758
77517;BME280;68414;53.946;27.634;2023-07-24T04:03:42;98192.820312;;;18.920000;69.581055
77517;BME280;68414;53.946;27.634;2023-07-24T04:04:42;98179.296875;;;18.900000;69.875977
77517;BME280;68414;53.946;27.634;2023-07-24T04:05:42;98180.968750;;;18.840000;69.712891
77517;BME280;68414;53.946;27.634;2023-07-24T04:06:42;98181.593750;;;18.719999;70.113281
77517;BME280;68414;53.946;27.634;2023-07-24T04:07:42;98190.406250;;;18.709999;70.043945
77517;BME280;68414;53.946;27.634;2023-07-24T04:08:42;98194.937500;;;18.610001;71.033203
77517;BME280;68414;53.946;27.634;2023-07-24T04:09:42;98191.523438;;;18.500000;71.688477
77517;BME280;68414;53.946;27.634;2023-07-24T04:10:42;98200.398438;;;18.420000;72.269531
77517;BME280;68414;53.946;27.634;2023-07-24T04:11:42;98200.460938;;;18.379999;72.539062
77517;BME280;68414;53.946;27.634;2023-07-24T04:12:42;98197.773438;;;18.309999;73.101562
77517;BME280;68414;53.946;27.634;2023-07-24T04:13:42;98191.367188;;;18.340000;72.709961
77517;BME280;68414;53.946;27.634;2023-07-24T04:14:42;98197.343750;;;18.330000;72.761719
77517;BME280;68414;53.946;27.634;2023-07-24T04:15:42;98192.031250;;;18.420000;72.567383
77517;BME280;68414;53.946;27.634;2023-07-24T04:16:42;98190.687500;;;18.530001;72.486328
77517;BME280;68414;53.946;27.634;2023-07-24T04:17:42;98193.664062;;;18.660000;71.878906
77517;BME280;68414;53.946;27.634;2023-07-24T04:18:42;98193.125000;;;18.740000;71.517578
77517;BME280;68414;53.946;27.634;2023-07-24T04:19:42;98186.453125;;;18.680000;71.354492
77517;BME280;68414;53.946;27.634;2023-07-24T04:20:42;98183.515625;;;18.750000;71.088867
77517;BME280;68414;53.946;27.634;2023-07-24T04:21:42;98177.937500;;;18.750000;70.923828
77517;BME280;68414;53.946;27.634;2023-07-24T04:22:42;98181.117188;;;18.770000;70.960938
77517;BME280;68414;53.946;27.634;2023-07-24T04:23:42;98174.312500;;;18.780001;71.060547
77517;BME280;68414;53.946;27.634;2023-07-24T04:24:42;98180.328125;;;18.770000;71.533203
77517;BME280;68414;53.946;27.634;2023-07-24T04:25:42;98175.468750;;;18.809999;71.274414
77517;BME280;68414;53.946;27.634;2023-07-24T04:26:42;98182.203125;;;18.830000;71.036133
77517;BME280;68414;53.946;27.634;2023-07-24T04:27:42;98175.578125;;;18.740000;71.560547
77517;BME280;68414;53.946;27.634;2023-07-24T04:28:42;98170.179688;;;18.629999;72.360352
77517;BME280;68414;53.946;27.634;2023-07-24T04:29:42;98180.617188;;;18.590000;72.397461
77517;BME280;68414;53.946;27.634;2023-07-24T04:30:42;98170.656250;;;18.580000;73.025391
77517;BME280;68414;53.946;27.634;2023-07-24T04:31:42;98165.398438;;;18.639999;73.221680
77517;BME280;68414;53.946;27.634;2023-07-24T04:32:42;98169.562500;;;18.750000;72.467773
77517;BME280;68414;53.946;27.634;2023-07-24T04:33:42;98166.656250;;;18.820000;72.137695
77517;BME280;68414;53.946;27.634;2023-07-24T04:34:42;98170.000000;;;18.740000;72.123047
77517;BME280;68414;53.946;27.634;2023-07-24T04:35:42;98170.359375;;;18.760000;71.949219
77517;BME280;68414;53.946;27.634;2023-07-24T04:36:42;98169.203125;;;18.730000;72.454102
77517;BME280;68414;53.946;27.634;2023-07-24T04:37:42;98171.632812;;;18.709999;72.693359
77517;BME280;68414;53.946;27.634;2023-07-24T04:38:42;98160.828125;;;18.730000;72.487305